Clipper Imabari — 3ERD7 — position and weather

sailwx.info

Track history (hours):
 
Tides and Currents Weather Stations Pressure Air Temp Water Temp Dewpoint Dewpoint Depression Visibility Wind Speed Wind Dir Waves Ship Positions

Clipper Imabari

Last reported at 2015-May-06 18:33 UTC. Time now 2015-May-06 19:32 UTC.
Position N 38°48' W 009°52'.

Length 169 m; draft 5.5 m.

Type: Ship. MMSI: 370016000.

Date/timePositionNaut miles runAvg speedWind from/ knotsBaromVisibWave heightAir tempDewpointWater temp
2015-May-06 18:33N 38°48' W 009°52'1212.1
2015-May-06 17:33N 38°36' W 009°50'1211.9
2015-May-06 16:33N 38°25' W 009°45'1211.6
2015-May-06 15:34N 38°13' W 009°43'1111.3
2015-May-06 14:33N 38°02' W 009°39'1111.2
2015-May-06 13:33N 37°51' W 009°38'1110.9
2015-May-06 12:32N 37°40' W 009°37'1110.8
2015-May-06 11:33N 37°30' W 009°37'1111.1
2015-May-06 10:32N 37°18' W 009°37'4310.7
2015-May-06 06:32N 36°44' W 009°06'1212.5
2015-May-06 05:34N 36°42' W 008°51'1212.5
2015-May-06 04:34N 36°43' W 008°35'1312.9
2015-May-06 03:34N 36°43' W 008°19'1312.9
2015-May-06 02:34N 36°42' W 008°03'  
2015-May-03 07:28N 37°12' W 006°56'0 0.0
2015-May-03 06:31N 37°12' W 006°56'0 0.0
2015-May-03 05:28N 37°12' W 006°56'8 0.4
2015-May-02 08:08N 37°05' W 006°51'0 0.1
2015-May-02 06:14N 37°05' W 006°51'0 0.0
2015-May-02 05:32N 37°05' W 006°51'29 1.6
2015-May-01 11:07N 36°36' W 006°49'712.2
2015-May-01 10:33N 36°29' W 006°50'3611.3
2015-May-01 07:22N 36°01' W 006°21'3610.9
2015-May-01 04:04N 35°58' W 005°37'5 9.4
2015-May-01 03:33N 35°59' W 005°31'10 9.8
2015-May-01 02:34N 36°01' W 005°20'1010.1
2015-May-01 01:33N 36°03' W 005°07'9711.8
2015-Apr-30 17:20N 36°19' W 003°08'911.9
2015-Apr-30 16:34N 36°20' W 002°57'1212.2
2015-Apr-30 15:34N 36°21' W 002°42'1312.2
2015-Apr-30 14:30N 36°24' W 002°26'1212.7
2015-Apr-30 13:33N 36°26' W 002°11'1312.8
2015-Apr-30 12:33N 36°28' W 001°56'1312.5
2015-Apr-30 11:33N 36°32' W 001°41'5612.6
2015-Apr-30 07:06N 36°46' W 000°33'1912.2
2015-Apr-30 05:33N 36°52' W 000°11'1211.8
2015-Apr-30 04:30N 36°55' E 000°04'1112.0
2015-Apr-30 03:34N 36°57' E 000°18'1212.0
2015-Apr-30 02:33N 37°01' E 000°32'1211.6
2015-Apr-30 01:33N 37°02' E 000°47'1211.9
2015-Apr-30 00:33N 37°05' E 001°01'1211.9
2015-Apr-29 23:33N 37°07' E 001°16'1212.2
2015-Apr-29 22:33N 37°10' E 001°31'1212.2
2015-Apr-29 21:33N 37°12' E 001°46'1212.1
2015-Apr-29 20:32N 37°15' E 002°01'1212.0
2015-Apr-29 19:33N 37°17' E 002°15'1312.1
2015-Apr-29 18:30N 37°20' E 002°31'1512.0
2015-Apr-29 17:17N 37°23' E 002°49'1411.8
2015-Apr-29 16:05N 37°25' E 003°07'1011.7
2015-Apr-29 15:16N 37°25' E 003°19'811.6
2015-Apr-29 14:33N 37°26' E 003°29'1211.7
2015-Apr-29 13:33N 37°28' E 003°44'47510.5
2015-Apr-27 16:27N 36°31' E 013°34'1112.1
2015-Apr-27 15:33N 36°26' E 013°46'1212.4
2015-Apr-27 14:33N 36°21' E 014°01'1212.5
2015-Apr-27 13:33N 36°21' E 014°16'1312.5
2015-Apr-27 12:33N 36°20' E 014°32'1212.4
2015-Apr-27 11:33N 36°20' E 014°47'13412.2
2015-Apr-27 00:33N 36°15' E 017°33'1211.9
2015-Apr-26 23:33N 36°14' E 017°48'  
Track history (hours):
 
Tides and Currents Weather Stations Pressure Air Temp Water Temp Dewpoint Dewpoint Depression Visibility Wind Speed Wind Dir Waves Ship Positions

Clipper Imabari

Last reported at 2015-May-06 18:33 UTC. Time now 2015-May-06 19:32 UTC.
Position N 38°48' W 009°52'.

Length 169 m; draft 5.5 m.

Type: Ship. MMSI: 370016000.

Date/timePositionNaut miles runAvg speedWind from/ knotsBaromVisibWave heightAir tempDewpointWater temp
2015-May-06 18:33N 38°48' W 009°52'1212.1
2015-May-06 17:33N 38°36' W 009°50'1211.9
2015-May-06 16:33N 38°25' W 009°45'1211.6
2015-May-06 15:34N 38°13' W 009°43'1111.3
2015-May-06 14:33N 38°02' W 009°39'1111.2
2015-May-06 13:33N 37°51' W 009°38'1110.9
2015-May-06 12:32N 37°40' W 009°37'1110.8
2015-May-06 11:33N 37°30' W 009°37'1111.1
2015-May-06 10:32N 37°18' W 009°37'4310.7
2015-May-06 06:32N 36°44' W 009°06'1212.5
2015-May-06 05:34N 36°42' W 008°51'1212.5
2015-May-06 04:34N 36°43' W 008°35'1312.9
2015-May-06 03:34N 36°43' W 008°19'1312.9
2015-May-06 02:34N 36°42' W 008°03'  
2015-May-03 07:28N 37°12' W 006°56'0 0.0
2015-May-03 06:31N 37°12' W 006°56'0 0.0
2015-May-03 05:28N 37°12' W 006°56'8 0.4
2015-May-02 08:08N 37°05' W 006°51'0 0.1
2015-May-02 06:14N 37°05' W 006°51'0 0.0
2015-May-02 05:32N 37°05' W 006°51'29 1.6
2015-May-01 11:07N 36°36' W 006°49'712.2
2015-May-01 10:33N 36°29' W 006°50'3611.3
2015-May-01 07:22N 36°01' W 006°21'3610.9
2015-May-01 04:04N 35°58' W 005°37'5 9.4
2015-May-01 03:33N 35°59' W 005°31'10 9.8
2015-May-01 02:34N 36°01' W 005°20'1010.1
2015-May-01 01:33N 36°03' W 005°07'9711.8
2015-Apr-30 17:20N 36°19' W 003°08'911.9
2015-Apr-30 16:34N 36°20' W 002°57'1212.2
2015-Apr-30 15:34N 36°21' W 002°42'1312.2
2015-Apr-30 14:30N 36°24' W 002°26'1212.7
2015-Apr-30 13:33N 36°26' W 002°11'1312.8
2015-Apr-30 12:33N 36°28' W 001°56'1312.5
2015-Apr-30 11:33N 36°32' W 001°41'5612.6
2015-Apr-30 07:06N 36°46' W 000°33'1912.2
2015-Apr-30 05:33N 36°52' W 000°11'1211.8
2015-Apr-30 04:30N 36°55' E 000°04'1112.0
2015-Apr-30 03:34N 36°57' E 000°18'1212.0
2015-Apr-30 02:33N 37°01' E 000°32'1211.6
2015-Apr-30 01:33N 37°02' E 000°47'1211.9
2015-Apr-30 00:33N 37°05' E 001°01'1211.9
2015-Apr-29 23:33N 37°07' E 001°16'1212.2
2015-Apr-29 22:33N 37°10' E 001°31'1212.2
2015-Apr-29 21:33N 37°12' E 001°46'1212.1
2015-Apr-29 20:32N 37°15' E 002°01'1212.0
2015-Apr-29 19:33N 37°17' E 002°15'1312.1
2015-Apr-29 18:30N 37°20' E 002°31'1512.0
2015-Apr-29 17:17N 37°23' E 002°49'1411.8
2015-Apr-29 16:05N 37°25' E 003°07'1011.7
2015-Apr-29 15:16N 37°25' E 003°19'811.6
2015-Apr-29 14:33N 37°26' E 003°29'1211.7
2015-Apr-29 13:33N 37°28' E 003°44'47510.5
2015-Apr-27 16:27N 36°31' E 013°34'1112.1
2015-Apr-27 15:33N 36°26' E 013°46'1212.4
2015-Apr-27 14:33N 36°21' E 014°01'1212.5
2015-Apr-27 13:33N 36°21' E 014°16'1312.5
2015-Apr-27 12:33N 36°20' E 014°32'1212.4
2015-Apr-27 11:33N 36°20' E 014°47'13412.2
2015-Apr-27 00:33N 36°15' E 017°33'1211.9
2015-Apr-26 23:33N 36°14' E 017°48'  

Dump ship's entire track history